METAR Data
IDs: Format: Raw Decoded Include TAF

Data at: 0123 UTC 24 Sep 2018

KSFB 240053Z 07003KT 10SM CLR 26/22 A3001 RMK AO2 SLP159 T02610222
KSFB 232353Z 09007KT 10SM FEW010 27/22 A2998 RMK AO2 SLP151 T02670217 10333 20267 51008
KSFB 232253Z 09010KT 10SM CLR 29/21 A2998 RMK AO2 SLP149 T02890211
KSFB 232153Z 08011KT 10SM CLR 30/21 A2996 RMK AO2 SLP145 T03000211
KSFB 232053Z 08012KT 10SM CLR 32/22 A2996 RMK AO2 SLP142 T03170217 56016
KSFB 231953Z 08011KT 10SM FEW041 32/21 A2996 RMK AO2 SLP145 T03220211
KSFB 231853Z 07009KT 10SM SCT046 31/21 A2998 RMK AO2 SLP150 T03110211
KSFB 231753Z 07010KT 10SM FEW039 33/22 A3000 RMK AO2 SLP158 T03280217 10333 20244 58014
KSFB 231653Z 10008KT 10SM FEW038 32/22 A3003 RMK AO2 SLP166 T03220217
KSFB 231553Z 11009KT 10SM FEW035 32/22 A3004 RMK AO2 SLP169 T03170222
KSFB 231453Z 09006KT 10SM FEW032 30/22 A3004 RMK AO2 SLP173 T03000222 51017
KSFB 231353Z 10009KT 10SM FEW043 29/22 A3004 RMK AO2 SLP170 T02890222
KSFB 231253Z 09005KT 10SM CLR 27/23 A3002 RMK AO2 SLP162 T02720233
KSFB 231153Z 04003KT 10SM CLR 24/22 A3000 RMK AO2 SLP156 T02440222 10244 20228 51008
KSFB 231150Z 05004KT 10SM FEW007 24/22 A2999 RMK AO2
KSFB 231053Z 06004KT 10SM CLR 23/22 A2998 RMK AO2 SLP152 T02330217
KSFB 230953Z AUTO 00000KT 10SM SCT043 24/22 A2997 RMK AO2 SLP148 T02390222
KSFB 230853Z AUTO 00000KT 10SM CLR 23/23 A2997 RMK AO2 SLP148 T02330228 56012
KSFB 230753Z AUTO 00000KT 10SM CLR 23/22 A2998 RMK AO2 SLP151 T02330222
KSFB 230653Z AUTO 00000KT 10SM CLR 24/23 A3000 RMK AO2 SLP156 T02390228
KSFB 230553Z AUTO 00000KT 10SM FEW047 24/22 A3001 RMK AO2 SLP161 T02390222 10267 20239 58004
KSFB 230453Z AUTO 00000KT 10SM CLR 24/22 A3002 RMK AO2 SLP164 T02390222 403170239
KSFB 230353Z AUTO 07003KT 10SM CLR 24/22 A3002 RMK AO2 SLP164 T02390222
KSFB 230253Z 05003KT 10SM CLR 25/23 A3002 RMK AO2 SLP165 T02500228 51011
KSFB 230153Z 09003KT 10SM CLR 25/23 A3002 RMK AO2 SLP164 T02500228
KSFB 230053Z 09004KT 10SM CLR 26/22 A2999 RMK AO2 SLP156 T02610222
KSFB 222353Z 10006KT 10SM CLR 27/22 A2999 RMK AO2 SLP154 T02670222 10317 20267 51003
KSFB 222253Z 10008KT 10SM CLR 28/21 A2999 RMK AO2 SLP154 T02830211
KSFB 222153Z 09011KT 10SM CLR 29/22 A2999 RMK AO2 SLP156 T02940217
KSFB 222053Z 09012G17KT 10SM BKN038 BKN049 BKN055 31/22 A2998 RMK AO2 SLP152 T03110222 56016
KSFB 221953Z 10010KT 10SM FEW034 SCT060 BKN090 31/22 A2999 RMK AO2 SLP153 T03060222
KSFB 221853Z 06012KT 10SM FEW028 SCT039 SCT070 31/23 A3000 RMK AO2 SLP159 T03060233
KSFB 221753Z 07005KT 10SM FEW022 29/24 A3003 RMK AO2 SLP168 T02940239 10300 20250 56016
KSFB 221653Z 08009KT 10SM FEW020 30/24 A3005 RMK AO2 SLP173 T03000239
KSFB 221553Z 06009KT 10SM CLR 29/24 A3006 RMK AO2 SLP177 T02940239
KSFB 221453Z 05006KT 10SM OVC060 26/23 A3008 RMK AO2 SLP184 T02560228 53010
KSFB 221353Z 04008KT 10SM SCT037 OVC050 25/23 A3006 RMK AO2 SLP179 T02500228